sensor_id;sensor_type;location;lat;lon;timestamp;P1;durP1;ratioP1;P2;durP2;ratioP2
23159;SDS011;11748;50.844;4.396;2023-06-14T00:00:12;9.85;;;5.35;;
23159;SDS011;11748;50.844;4.396;2023-06-14T00:02:39;7.60;;;5.00;;
23159;SDS011;11748;50.844;4.396;2023-06-14T00:05:06;13.07;;;5.10;;
23159;SDS011;11748;50.844;4.396;2023-06-14T00:07:33;8.50;;;4.75;;
23159;SDS011;11748;50.844;4.396;2023-06-14T00:10:00;9.68;;;5.60;;
23159;SDS011;11748;50.844;4.396;2023-06-14T00:12:26;8.63;;;4.70;;
23159;SDS011;11748;50.844;4.396;2023-06-14T00:14:52;7.57;;;4.85;;
23159;SDS011;11748;50.844;4.396;2023-06-14T00:17:18;6.68;;;5.18;;
23159;SDS011;11748;50.844;4.396;2023-06-14T00:19:43;6.60;;;5.10;;
23159;SDS011;11748;50.844;4.396;2023-06-14T00:22:09;6.15;;;5.00;;
23159;SDS011;11748;50.844;4.396;2023-06-14T00:24:35;7.75;;;5.07;;
23159;SDS011;11748;50.844;4.396;2023-06-14T00:27:01;8.15;;;5.20;;
23159;SDS011;11748;50.844;4.396;2023-06-14T00:29:26;7.57;;;4.90;;
23159;SDS011;11748;50.844;4.396;2023-06-14T00:31:52;8.43;;;5.18;;
23159;SDS011;11748;50.844;4.396;2023-06-14T00:34:18;9.32;;;5.40;;
23159;SDS011;11748;50.844;4.396;2023-06-14T00:36:43;6.22;;;5.20;;
23159;SDS011;11748;50.844;4.396;2023-06-14T00:39:09;8.18;;;5.30;;
23159;SDS011;11748;50.844;4.396;2023-06-14T00:41:34;6.72;;;5.03;;
23159;SDS011;11748;50.844;4.396;2023-06-14T00:44:00;8.10;;;4.95;;
23159;SDS011;11748;50.844;4.396;2023-06-14T00:46:26;7.70;;;4.75;;
23159;SDS011;11748;50.844;4.396;2023-06-14T00:48:51;6.88;;;5.03;;
23159;SDS011;11748;50.844;4.396;2023-06-14T00:51:18;8.02;;;5.22;;
23159;SDS011;11748;50.844;4.396;2023-06-14T00:53:44;7.28;;;5.00;;
23159;SDS011;11748;50.844;4.396;2023-06-14T00:56:12;9.60;;;4.88;;
23159;SDS011;11748;50.844;4.396;2023-06-14T00:58:39;7.07;;;5.13;;
23159;SDS011;11748;50.844;4.396;2023-06-14T01:01:06;6.70;;;4.35;;
23159;SDS011;11748;50.844;4.396;2023-06-14T01:03:32;6.88;;;5.18;;
23159;SDS011;11748;50.844;4.396;2023-06-14T01:06:18;7.57;;;5.65;;
23159;SDS011;11748;50.844;4.396;2023-06-14T01:08:56;8.27;;;5.97;;
23159;SDS011;11748;50.844;4.396;2023-06-14T01:11:41;11.93;;;5.80;;
23159;SDS011;11748;50.844;4.396;2023-06-14T01:14:15;12.57;;;5.93;;
23159;SDS011;11748;50.844;4.396;2023-06-14T01:16:42;9.35;;;5.40;;
23159;SDS011;11748;50.844;4.396;2023-06-14T01:19:10;8.75;;;5.68;;
23159;SDS011;11748;50.844;4.396;2023-06-14T01:21:38;9.38;;;5.65;;
23159;SDS011;11748;50.844;4.396;2023-06-14T01:24:07;7.07;;;5.47;;
23159;SDS011;11748;50.844;4.396;2023-06-14T01:26:34;7.97;;;5.88;;
23159;SDS011;11748;50.844;4.396;2023-06-14T01:29:02;8.43;;;5.80;;
23159;SDS011;11748;50.844;4.396;2023-06-14T01:31:29;9.68;;;5.88;;
23159;SDS011;11748;50.844;4.396;2023-06-14T01:34:04;7.00;;;5.35;;
23159;SDS011;11748;50.844;4.396;2023-06-14T01:36:30;11.80;;;5.32;;
23159;SDS011;11748;50.844;4.396;2023-06-14T01:38:56;6.30;;;5.22;;
23159;SDS011;11748;50.844;4.396;2023-06-14T01:41:24;8.30;;;5.57;;
23159;SDS011;11748;50.844;4.396;2023-06-14T01:43:51;13.32;;;6.13;;
23159;SDS011;11748;50.844;4.396;2023-06-14T01:46:17;9.25;;;5.10;;
23159;SDS011;11748;50.844;4.396;2023-06-14T01:48:44;8.88;;;5.82;;
23159;SDS011;11748;50.844;4.396;2023-06-14T01:51:11;11.43;;;5.55;;
23159;SDS011;11748;50.844;4.396;2023-06-14T01:53:37;9.82;;;6.03;;
23159;SDS011;11748;50.844;4.396;2023-06-14T01:56:03;10.38;;;5.78;;
23159;SDS011;11748;50.844;4.396;2023-06-14T01:58:30;10.07;;;6.00;;
23159;SDS011;11748;50.844;4.396;2023-06-14T02:00:56;9.35;;;5.80;;
23159;SDS011;11748;50.844;4.396;2023-06-14T02:03:23;10.43;;;6.03;;
23159;SDS011;11748;50.844;4.396;2023-06-14T02:05:49;9.93;;;6.47;;
23159;SDS011;11748;50.844;4.396;2023-06-14T02:08:15;7.28;;;6.13;;
23159;SDS011;11748;50.844;4.396;2023-06-14T02:10:40;8.35;;;5.85;;
23159;SDS011;11748;50.844;4.396;2023-06-14T02:13:06;10.68;;;6.70;;
23159;SDS011;11748;50.844;4.396;2023-06-14T02:15:32;14.40;;;6.50;;
23159;SDS011;11748;50.844;4.396;2023-06-14T02:18:04;8.85;;;6.53;;
23159;SDS011;11748;50.844;4.396;2023-06-14T02:20:30;10.95;;;6.82;;
23159;SDS011;11748;50.844;4.396;2023-06-14T02:22:57;13.30;;;6.32;;
23159;SDS011;11748;50.844;4.396;2023-06-14T02:25:22;12.15;;;6.50;;
23159;SDS011;11748;50.844;4.396;2023-06-14T02:27:48;8.63;;;6.10;;
23159;SDS011;11748;50.844;4.396;2023-06-14T02:30:14;10.18;;;6.28;;
23159;SDS011;11748;50.844;4.396;2023-06-14T02:32:40;13.88;;;6.55;;
23159;SDS011;11748;50.844;4.396;2023-06-14T02:35:07;8.30;;;6.47;;
23159;SDS011;11748;50.844;4.396;2023-06-14T02:37:34;9.10;;;6.50;;
23159;SDS011;11748;50.844;4.396;2023-06-14T02:40:00;9.50;;;6.03;;
23159;SDS011;11748;50.844;4.396;2023-06-14T02:42:26;9.93;;;6.63;;
23159;SDS011;11748;50.844;4.396;2023-06-14T02:44:51;11.10;;;6.70;;
23159;SDS011;11748;50.844;4.396;2023-06-14T02:47:17;9.63;;;6.65;;
23159;SDS011;11748;50.844;4.396;2023-06-14T02:49:43;11.43;;;6.90;;
23159;SDS011;11748;50.844;4.396;2023-06-14T02:52:11;11.52;;;6.47;;
23159;SDS011;11748;50.844;4.396;2023-06-14T02:54:37;14.10;;;6.90;;
23159;SDS011;11748;50.844;4.396;2023-06-14T02:57:02;8.60;;;6.32;;
23159;SDS011;11748;50.844;4.396;2023-06-14T02:59:28;8.55;;;6.72;;
23159;SDS011;11748;50.844;4.396;2023-06-14T03:01:54;9.70;;;6.70;;
23159;SDS011;11748;50.844;4.396;2023-06-14T03:04:20;14.10;;;7.05;;
23159;SDS011;11748;50.844;4.396;2023-06-14T03:06:46;8.13;;;6.57;;
23159;SDS011;11748;50.844;4.396;2023-06-14T03:09:15;12.75;;;7.20;;
23159;SDS011;11748;50.844;4.396;2023-06-14T03:11:41;13.85;;;7.65;;
23159;SDS011;11748;50.844;4.396;2023-06-14T03:14:07;8.77;;;6.95;;
23159;SDS011;11748;50.844;4.396;2023-06-14T03:16:33;7.95;;;7.07;;
23159;SDS011;11748;50.844;4.396;2023-06-14T03:18:59;13.93;;;7.45;;
23159;SDS011;11748;50.844;4.396;2023-06-14T03:21:26;12.07;;;7.13;;
23159;SDS011;11748;50.844;4.396;2023-06-14T03:23:51;11.48;;;7.22;;
23159;SDS011;11748;50.844;4.396;2023-06-14T03:26:18;11.45;;;7.13;;
23159;SDS011;11748;50.844;4.396;2023-06-14T03:28:46;12.00;;;8.18;;
23159;SDS011;11748;50.844;4.396;2023-06-14T03:31:14;9.50;;;7.60;;
23159;SDS011;11748;50.844;4.396;2023-06-14T03:33:41;10.15;;;7.05;;
23159;SDS011;11748;50.844;4.396;2023-06-14T03:36:07;13.13;;;7.22;;
23159;SDS011;11748;50.844;4.396;2023-06-14T03:38:34;9.82;;;7.22;;
23159;SDS011;11748;50.844;4.396;2023-06-14T03:41:00;9.98;;;7.82;;
23159;SDS011;11748;50.844;4.396;2023-06-14T03:43:25;10.30;;;7.43;;
23159;SDS011;11748;50.844;4.396;2023-06-14T03:45:52;11.65;;;7.60;;
23159;SDS011;11748;50.844;4.396;2023-06-14T03:48:17;13.10;;;7.82;;
23159;SDS011;11748;50.844;4.396;2023-06-14T03:50:43;11.07;;;8.15;;
23159;SDS011;11748;50.844;4.396;2023-06-14T03:53:10;8.40;;;7.22;;
23159;SDS011;11748;50.844;4.396;2023-06-14T03:55:35;12.75;;;8.07;;
23159;SDS011;11748;50.844;4.396;2023-06-14T03:58:02;13.18;;;7.55;;
23159;SDS011;11748;50.844;4.396;2023-06-14T04:00:28;11.20;;;7.72;;
23159;SDS011;11748;50.844;4.396;2023-06-14T04:02:54;10.38;;;7.53;;
23159;SDS011;11748;50.844;4.396;2023-06-14T04:05:20;10.38;;;7.82;;
23159;SDS011;11748;50.844;4.396;2023-06-14T04:07:45;14.38;;;7.88;;
23159;SDS011;11748;50.844;4.396;2023-06-14T04:10:13;12.63;;;7.70;;
23159;SDS011;11748;50.844;4.396;2023-06-14T04:12:40;11.23;;;7.55;;
23159;SDS011;11748;50.844;4.396;2023-06-14T04:15:06;13.55;;;7.30;;
23159;SDS011;11748;50.844;4.396;2023-06-14T04:17:33;10.85;;;7.50;;
23159;SDS011;11748;50.844;4.396;2023-06-14T04:20:00;12.85;;;7.50;;
23159;SDS011;11748;50.844;4.396;2023-06-14T04:22:26;11.05;;;7.68;;
23159;SDS011;11748;50.844;4.396;2023-06-14T04:24:56;11.68;;;7.63;;
23159;SDS011;11748;50.844;4.396;2023-06-14T04:27:22;12.23;;;7.50;;
23159;SDS011;11748;50.844;4.396;2023-06-14T04:29:53;11.48;;;7.60;;
23159;SDS011;11748;50.844;4.396;2023-06-14T04:32:25;11.63;;;7.32;;
23159;SDS011;11748;50.844;4.396;2023-06-14T04:34:57;11.80;;;7.72;;
23159;SDS011;11748;50.844;4.396;2023-06-14T04:37:24;8.52;;;6.93;;
23159;SDS011;11748;50.844;4.396;2023-06-14T04:39:51;9.88;;;6.90;;
23159;SDS011;11748;50.844;4.396;2023-06-14T04:42:17;12.85;;;7.30;;
23159;SDS011;11748;50.844;4.396;2023-06-14T04:44:45;12.65;;;7.45;;
23159;SDS011;11748;50.844;4.396;2023-06-14T04:47:13;10.63;;;7.60;;
23159;SDS011;11748;50.844;4.396;2023-06-14T04:49:41;12.13;;;6.97;;
23159;SDS011;11748;50.844;4.396;2023-06-14T04:52:06;9.43;;;7.10;;
23159;SDS011;11748;50.844;4.396;2023-06-14T04:54:35;13.57;;;7.38;;
23159;SDS011;11748;50.844;4.396;2023-06-14T04:57:06;9.32;;;7.10;;
23159;SDS011;11748;50.844;4.396;2023-06-14T04:59:33;12.63;;;7.90;;
23159;SDS011;11748;50.844;4.396;2023-06-14T05:02:00;10.57;;;7.25;;
23159;SDS011;11748;50.844;4.396;2023-06-14T05:04:26;12.25;;;7.50;;
23159;SDS011;11748;50.844;4.396;2023-06-14T05:06:53;11.45;;;7.65;;
23159;SDS011;11748;50.844;4.396;2023-06-14T05:09:19;10.57;;;7.93;;
23159;SDS011;11748;50.844;4.396;2023-06-14T05:11:46;11.25;;;7.60;;
23159;SDS011;11748;50.844;4.396;2023-06-14T05:14:13;15.00;;;8.32;;
23159;SDS011;11748;50.844;4.396;2023-06-14T05:16:39;11.95;;;7.22;;
23159;SDS011;11748;50.844;4.396;2023-06-14T05:19:06;13.30;;;8.23;;
23159;SDS011;11748;50.844;4.396;2023-06-14T05:21:32;8.07;;;7.25;;
23159;SDS011;11748;50.844;4.396;2023-06-14T05:24:00;13.30;;;8.25;;
23159;SDS011;11748;50.844;4.396;2023-06-14T05:26:26;14.43;;;7.57;;
23159;SDS011;11748;50.844;4.396;2023-06-14T05:28:55;8.52;;;7.38;;
23159;SDS011;11748;50.844;4.396;2023-06-14T05:31:22;13.95;;;7.80;;
23159;SDS011;11748;50.844;4.396;2023-06-14T05:33:49;13.07;;;7.50;;
23159;SDS011;11748;50.844;4.396;2023-06-14T05:36:15;11.68;;;8.10;;
23159;SDS011;11748;50.844;4.396;2023-06-14T05:38:40;14.25;;;7.50;;
23159;SDS011;11748;50.844;4.396;2023-06-14T05:41:06;15.73;;;7.80;;
23159;SDS011;11748;50.844;4.396;2023-06-14T05:43:32;11.15;;;8.07;;
23159;SDS011;11748;50.844;4.396;2023-06-14T05:45:57;12.57;;;7.60;;
23159;SDS011;11748;50.844;4.396;2023-06-14T05:48:23;10.50;;;7.13;;
23159;SDS011;11748;50.844;4.396;2023-06-14T05:50:49;10.50;;;7.45;;
23159;SDS011;11748;50.844;4.396;2023-06-14T05:53:15;14.13;;;7.70;;
23159;SDS011;11748;50.844;4.396;2023-06-14T05:55:40;13.15;;;7.65;;
23159;SDS011;11748;50.844;4.396;2023-06-14T05:58:06;9.85;;;7.07;;
23159;SDS011;11748;50.844;4.396;2023-06-14T06:00:32;11.45;;;7.53;;
23159;SDS011;11748;50.844;4.396;2023-06-14T06:02:58;8.88;;;7.40;;
23159;SDS011;11748;50.844;4.396;2023-06-14T06:05:24;12.10;;;7.13;;
23159;SDS011;11748;50.844;4.396;2023-06-14T06:07:49;14.32;;;7.43;;
23159;SDS011;11748;50.844;4.396;2023-06-14T06:10:15;12.63;;;7.22;;
23159;SDS011;11748;50.844;4.396;2023-06-14T06:12:42;15.15;;;7.57;;
23159;SDS011;11748;50.844;4.396;2023-06-14T06:15:08;13.18;;;7.07;;
23159;SDS011;11748;50.844;4.396;2023-06-14T06:17:37;9.40;;;6.75;;
23159;SDS011;11748;50.844;4.396;2023-06-14T06:20:03;8.70;;;6.60;;
23159;SDS011;11748;50.844;4.396;2023-06-14T06:22:30;13.02;;;8.05;;
23159;SDS011;11748;50.844;4.396;2023-06-14T06:24:56;12.70;;;7.10;;
23159;SDS011;11748;50.844;4.396;2023-06-14T06:27:22;15.40;;;7.57;;
23159;SDS011;11748;50.844;4.396;2023-06-14T06:29:47;12.75;;;6.75;;
23159;SDS011;11748;50.844;4.396;2023-06-14T06:32:14;12.27;;;6.53;;
23159;SDS011;11748;50.844;4.396;2023-06-14T06:34:40;8.82;;;6.13;;
23159;SDS011;11748;50.844;4.396;2023-06-14T06:37:06;15.05;;;6.38;;
23159;SDS011;11748;50.844;4.396;2023-06-14T06:39:32;10.75;;;6.13;;
23159;SDS011;11748;50.844;4.396;2023-06-14T06:41:58;9.82;;;6.15;;
23159;SDS011;11748;50.844;4.396;2023-06-14T06:44:23;11.32;;;7.03;;
23159;SDS011;11748;50.844;4.396;2023-06-14T06:46:49;11.05;;;6.03;;
23159;SDS011;11748;50.844;4.396;2023-06-14T06:49:15;11.10;;;6.18;;
23159;SDS011;11748;50.844;4.396;2023-06-14T06:51:41;9.35;;;6.10;;
23159;SDS011;11748;50.844;4.396;2023-06-14T06:54:08;15.10;;;6.15;;
23159;SDS011;11748;50.844;4.396;2023-06-14T06:56:34;9.07;;;5.72;;
23159;SDS011;11748;50.844;4.396;2023-06-14T06:59:00;8.75;;;5.95;;
23159;SDS011;11748;50.844;4.396;2023-06-14T07:01:26;9.02;;;5.93;;
23159;SDS011;11748;50.844;4.396;2023-06-14T07:03:54;11.65;;;6.20;;
23159;SDS011;11748;50.844;4.396;2023-06-14T07:06:20;14.32;;;5.50;;
23159;SDS011;11748;50.844;4.396;2023-06-14T07:08:46;12.20;;;6.13;;
23159;SDS011;11748;50.844;4.396;2023-06-14T07:11:14;8.15;;;5.72;;
23159;SDS011;11748;50.844;4.396;2023-06-14T07:13:40;10.27;;;5.78;;
23159;SDS011;11748;50.844;4.396;2023-06-14T07:16:05;12.00;;;6.03;;
23159;SDS011;11748;50.844;4.396;2023-06-14T07:18:31;12.65;;;6.25;;
23159;SDS011;11748;50.844;4.396;2023-06-14T07:20:57;9.98;;;5.43;;
23159;SDS011;11748;50.844;4.396;2023-06-14T07:23:23;10.98;;;5.60;;
23159;SDS011;11748;50.844;4.396;2023-06-14T07:25:48;11.05;;;5.47;;
23159;SDS011;11748;50.844;4.396;2023-06-14T07:28:15;9.77;;;5.50;;
23159;SDS011;11748;50.844;4.396;2023-06-14T07:30:42;8.50;;;5.75;;
23159;SDS011;11748;50.844;4.396;2023-06-14T07:33:07;8.88;;;5.20;;
23159;SDS011;11748;50.844;4.396;2023-06-14T07:35:33;10.18;;;5.57;;
23159;SDS011;11748;50.844;4.396;2023-06-14T07:37:59;9.98;;;5.63;;
23159;SDS011;11748;50.844;4.396;2023-06-14T07:40:24;6.72;;;4.72;;
23159;SDS011;11748;50.844;4.396;2023-06-14T07:42:50;9.02;;;5.10;;
23159;SDS011;11748;50.844;4.396;2023-06-14T07:45:16;9.18;;;5.40;;
23159;SDS011;11748;50.844;4.396;2023-06-14T07:47:42;9.93;;;5.32;;
23159;SDS011;11748;50.844;4.396;2023-06-14T07:50:08;9.10;;;4.80;;
23159;SDS011;11748;50.844;4.396;2023-06-14T07:52:34;9.18;;;5.47;;
23159;SDS011;11748;50.844;4.396;2023-06-14T07:55:00;8.80;;;5.13;;
23159;SDS011;11748;50.844;4.396;2023-06-14T07:57:25;9.60;;;5.38;;
23159;SDS011;11748;50.844;4.396;2023-06-14T07:59:51;9.15;;;5.13;;
23159;SDS011;11748;50.844;4.396;2023-06-14T08:02:17;8.57;;;5.00;;
23159;SDS011;11748;50.844;4.396;2023-06-14T08:04:43;12.10;;;5.35;;
23159;SDS011;11748;50.844;4.396;2023-06-14T08:07:08;7.28;;;4.93;;
23159;SDS011;11748;50.844;4.396;2023-06-14T08:09:34;7.80;;;5.47;;
23159;SDS011;11748;50.844;4.396;2023-06-14T08:12:03;12.32;;;5.30;;
23159;SDS011;11748;50.844;4.396;2023-06-14T08:14:32;6.57;;;4.97;;
23159;SDS011;11748;50.844;4.396;2023-06-14T08:16:58;9.55;;;5.82;;
23159;SDS011;11748;50.844;4.396;2023-06-14T08:19:25;9.10;;;6.03;;
23159;SDS011;11748;50.844;4.396;2023-06-14T08:21:51;12.88;;;6.25;;
23159;SDS011;11748;50.844;4.396;2023-06-14T08:24:16;11.57;;;5.53;;
23159;SDS011;11748;50.844;4.396;2023-06-14T08:26:43;11.18;;;5.20;;
23159;SDS011;11748;50.844;4.396;2023-06-14T08:29:09;10.00;;;5.53;;
23159;SDS011;11748;50.844;4.396;2023-06-14T08:31:35;10.57;;;5.88;;
23159;SDS011;11748;50.844;4.396;2023-06-14T08:34:01;8.65;;;5.05;;
23159;SDS011;11748;50.844;4.396;2023-06-14T08:36:26;9.52;;;5.57;;
23159;SDS011;11748;50.844;4.396;2023-06-14T08:38:52;9.07;;;5.28;;
23159;SDS011;11748;50.844;4.396;2023-06-14T08:41:21;9.70;;;5.20;;
23159;SDS011;11748;50.844;4.396;2023-06-14T08:43:49;9.93;;;5.38;;
23159;SDS011;11748;50.844;4.396;2023-06-14T08:46:15;8.50;;;5.72;;
23159;SDS011;11748;50.844;4.396;2023-06-14T08:48:46;12.23;;;5.70;;
23159;SDS011;11748;50.844;4.396;2023-06-14T08:51:13;10.48;;;5.53;;
23159;SDS011;11748;50.844;4.396;2023-06-14T08:53:43;10.82;;;5.30;;
23159;SDS011;11748;50.844;4.396;2023-06-14T08:56:09;11.40;;;5.13;;
23159;SDS011;11748;50.844;4.396;2023-06-14T08:58:40;10.70;;;5.20;;
23159;SDS011;11748;50.844;4.396;2023-06-14T09:01:10;8.68;;;5.13;;
23159;SDS011;11748;50.844;4.396;2023-06-14T09:03:42;8.93;;;5.57;;
23159;SDS011;11748;50.844;4.396;2023-06-14T09:06:08;10.32;;;5.55;;
23159;SDS011;11748;50.844;4.396;2023-06-14T09:08:39;9.80;;;5.60;;
23159;SDS011;11748;50.844;4.396;2023-06-14T09:11:06;14.95;;;5.70;;
23159;SDS011;11748;50.844;4.396;2023-06-14T09:13:33;11.27;;;6.13;;
23159;SDS011;11748;50.844;4.396;2023-06-14T09:15:59;12.45;;;6.15;;
23159;SDS011;11748;50.844;4.396;2023-06-14T09:18:45;11.57;;;5.50;;
23159;SDS011;11748;50.844;4.396;2023-06-14T09:21:15;12.85;;;5.70;;
23159;SDS011;11748;50.844;4.396;2023-06-14T09:23:45;10.40;;;6.07;;
23159;SDS011;11748;50.844;4.396;2023-06-14T09:28:42;6.93;;;4.88;;
23159;SDS011;11748;50.844;4.396;2023-06-14T09:31:17;8.95;;;5.60;;
23159;SDS011;11748;50.844;4.396;2023-06-14T09:33:45;7.78;;;5.55;;
23159;SDS011;11748;50.844;4.396;2023-06-14T09:36:23;7.15;;;4.80;;
23159;SDS011;11748;50.844;4.396;2023-06-14T09:38:53;7.03;;;4.85;;
23159;SDS011;11748;50.844;4.396;2023-06-14T09:41:21;11.23;;;5.70;;
23159;SDS011;11748;50.844;4.396;2023-06-14T09:44:08;8.85;;;5.90;;
23159;SDS011;11748;50.844;4.396;2023-06-14T09:46:35;10.15;;;5.07;;
23159;SDS011;11748;50.844;4.396;2023-06-14T09:49:02;8.75;;;5.25;;
23159;SDS011;11748;50.844;4.396;2023-06-14T09:51:29;10.85;;;5.05;;
23159;SDS011;11748;50.844;4.396;2023-06-14T09:53:58;9.93;;;4.88;;
23159;SDS011;11748;50.844;4.396;2023-06-14T09:56:29;10.32;;;5.93;;
23159;SDS011;11748;50.844;4.396;2023-06-14T09:58:57;8.55;;;5.30;;
23159;SDS011;11748;50.844;4.396;2023-06-14T10:01:24;7.88;;;5.40;;
23159;SDS011;11748;50.844;4.396;2023-06-14T10:03:55;9.38;;;4.47;;
23159;SDS011;11748;50.844;4.396;2023-06-14T10:06:25;6.33;;;4.73;;
23159;SDS011;11748;50.844;4.396;2023-06-14T10:08:54;6.95;;;4.47;;
23159;SDS011;11748;50.844;4.396;2023-06-14T10:11:22;8.45;;;5.05;;
23159;SDS011;11748;50.844;4.396;2023-06-14T10:13:49;9.20;;;5.10;;
23159;SDS011;11748;50.844;4.396;2023-06-14T10:24:18;10.43;;;4.93;;
23159;SDS011;11748;50.844;4.396;2023-06-14T10:26:51;7.40;;;4.75;;
23159;SDS011;11748;50.844;4.396;2023-06-14T10:29:18;7.22;;;4.60;;
23159;SDS011;11748;50.844;4.396;2023-06-14T10:31:45;5.10;;;4.53;;
23159;SDS011;11748;50.844;4.396;2023-06-14T10:34:12;6.70;;;4.03;;
23159;SDS011;11748;50.844;4.396;2023-06-14T10:36:50;7.70;;;4.97;;
23159;SDS011;11748;50.844;4.396;2023-06-14T10:39:28;6.30;;;4.70;;
23159;SDS011;11748;50.844;4.396;2023-06-14T10:41:54;7.53;;;4.93;;
23159;SDS011;11748;50.844;4.396;2023-06-14T10:46:52;7.05;;;4.72;;
23159;SDS011;11748;50.844;4.396;2023-06-14T10:49:18;7.28;;;5.05;;
23159;SDS011;11748;50.844;4.396;2023-06-14T10:51:45;9.13;;;4.45;;
23159;SDS011;11748;50.844;4.396;2023-06-14T10:54:16;7.60;;;4.43;;
23159;SDS011;11748;50.844;4.396;2023-06-14T10:56:48;7.97;;;4.35;;
23159;SDS011;11748;50.844;4.396;2023-06-14T10:59:15;7.75;;;4.10;;
23159;SDS011;11748;50.844;4.396;2023-06-14T11:04:51;7.00;;;3.97;;
23159;SDS011;11748;50.844;4.396;2023-06-14T11:10:32;6.97;;;4.43;;
23159;SDS011;11748;50.844;4.396;2023-06-14T11:13:05;10.43;;;4.88;;
23159;SDS011;11748;50.844;4.396;2023-06-14T11:15:35;9.13;;;4.18;;
23159;SDS011;11748;50.844;4.396;2023-06-14T11:18:02;6.40;;;3.78;;
23159;SDS011;11748;50.844;4.396;2023-06-14T11:20:30;10.32;;;4.15;;
23159;SDS011;11748;50.844;4.396;2023-06-14T11:22:57;9.63;;;4.38;;
23159;SDS011;11748;50.844;4.396;2023-06-14T11:25:23;8.25;;;4.15;;
23159;SDS011;11748;50.844;4.396;2023-06-14T11:27:49;10.20;;;4.10;;
23159;SDS011;11748;50.844;4.396;2023-06-14T11:30:16;5.65;;;4.25;;
23159;SDS011;11748;50.844;4.396;2023-06-14T11:32:42;7.20;;;3.97;;
23159;SDS011;11748;50.844;4.396;2023-06-14T11:35:07;8.80;;;4.28;;
23159;SDS011;11748;50.844;4.396;2023-06-14T11:37:34;8.05;;;4.30;;
23159;SDS011;11748;50.844;4.396;2023-06-14T11:40:07;8.60;;;3.72;;
23159;SDS011;11748;50.844;4.396;2023-06-14T11:42:34;8.30;;;3.72;;
23159;SDS011;11748;50.844;4.396;2023-06-14T11:45:00;6.10;;;3.90;;
23159;SDS011;11748;50.844;4.396;2023-06-14T11:47:34;10.27;;;4.18;;
23159;SDS011;11748;50.844;4.396;2023-06-14T11:50:01;6.18;;;3.60;;
23159;SDS011;11748;50.844;4.396;2023-06-14T11:52:27;7.15;;;4.32;;
23159;SDS011;11748;50.844;4.396;2023-06-14T11:54:53;6.88;;;3.50;;
23159;SDS011;11748;50.844;4.396;2023-06-14T11:57:19;8.25;;;4.00;;
23159;SDS011;11748;50.844;4.396;2023-06-14T11:59:45;12.63;;;3.58;;
23159;SDS011;11748;50.844;4.396;2023-06-14T12:02:15;6.90;;;3.80;;
23159;SDS011;11748;50.844;4.396;2023-06-14T12:04:46;7.53;;;3.30;;
23159;SDS011;11748;50.844;4.396;2023-06-14T12:07:14;8.63;;;4.30;;
23159;SDS011;11748;50.844;4.396;2023-06-14T12:09:41;9.98;;;3.95;;
23159;SDS011;11748;50.844;4.396;2023-06-14T12:12:11;10.38;;;3.90;;
23159;SDS011;11748;50.844;4.396;2023-06-14T12:14:37;8.65;;;4.10;;
23159;SDS011;11748;50.844;4.396;2023-06-14T12:17:06;8.27;;;4.00;;
23159;SDS011;11748;50.844;4.396;2023-06-14T12:19:32;6.63;;;4.07;;
23159;SDS011;11748;50.844;4.396;2023-06-14T12:22:06;7.80;;;3.42;;
23159;SDS011;11748;50.844;4.396;2023-06-14T12:24:35;7.22;;;3.47;;
23159;SDS011;11748;50.844;4.396;2023-06-14T12:27:01;6.70;;;3.70;;
23159;SDS011;11748;50.844;4.396;2023-06-14T12:29:30;8.80;;;3.50;;
23159;SDS011;11748;50.844;4.396;2023-06-14T12:31:56;7.93;;;3.85;;
23159;SDS011;11748;50.844;4.396;2023-06-14T12:34:25;7.25;;;3.17;;
23159;SDS011;11748;50.844;4.396;2023-06-14T12:36:52;5.35;;;3.20;;
23159;SDS011;11748;50.844;4.396;2023-06-14T12:39:18;8.90;;;3.15;;
23159;SDS011;11748;50.844;4.396;2023-06-14T12:41:44;6.00;;;3.80;;
23159;SDS011;11748;50.844;4.396;2023-06-14T12:44:10;4.72;;;3.17;;
23159;SDS011;11748;50.844;4.396;2023-06-14T12:46:37;13.65;;;3.47;;
23159;SDS011;11748;50.844;4.396;2023-06-14T12:49:04;6.32;;;3.58;;
23159;SDS011;11748;50.844;4.396;2023-06-14T12:51:32;7.45;;;3.17;;
23159;SDS011;11748;50.844;4.396;2023-06-14T12:53:57;8.07;;;2.80;;
23159;SDS011;11748;50.844;4.396;2023-06-14T12:56:23;5.03;;;3.17;;
23159;SDS011;11748;50.844;4.396;2023-06-14T12:58:49;6.63;;;3.28;;
23159;SDS011;11748;50.844;4.396;2023-06-14T13:01:15;7.00;;;3.17;;
23159;SDS011;11748;50.844;4.396;2023-06-14T13:03:41;5.85;;;2.65;;
23159;SDS011;11748;50.844;4.396;2023-06-14T13:06:07;5.38;;;3.22;;
23159;SDS011;11748;50.844;4.396;2023-06-14T13:08:33;4.53;;;3.10;;
23159;SDS011;11748;50.844;4.396;2023-06-14T13:10:58;6.55;;;3.10;;
23159;SDS011;11748;50.844;4.396;2023-06-14T13:13:24;7.72;;;3.33;;
23159;SDS011;11748;50.844;4.396;2023-06-14T13:15:50;5.53;;;2.97;;
23159;SDS011;11748;50.844;4.396;2023-06-14T13:18:16;5.60;;;2.53;;
23159;SDS011;11748;50.844;4.396;2023-06-14T13:20:42;4.72;;;2.70;;
23159;SDS011;11748;50.844;4.396;2023-06-14T13:23:07;9.80;;;3.17;;
23159;SDS011;11748;50.844;4.396;2023-06-14T13:25:34;7.32;;;3.25;;
23159;SDS011;11748;50.844;4.396;2023-06-14T13:28:01;6.72;;;2.85;;
23159;SDS011;11748;50.844;4.396;2023-06-14T13:30:27;6.15;;;2.60;;
23159;SDS011;11748;50.844;4.396;2023-06-14T13:32:53;4.05;;;2.53;;
23159;SDS011;11748;50.844;4.396;2023-06-14T13:35:19;5.38;;;2.65;;
23159;SDS011;11748;50.844;4.396;2023-06-14T13:37:44;8.85;;;2.85;;
23159;SDS011;11748;50.844;4.396;2023-06-14T13:40:11;4.28;;;2.50;;
23159;SDS011;11748;50.844;4.396;2023-06-14T13:42:40;3.90;;;2.63;;
23159;SDS011;11748;50.844;4.396;2023-06-14T13:45:07;6.10;;;2.38;;
23159;SDS011;11748;50.844;4.396;2023-06-14T13:47:33;6.07;;;2.40;;
23159;SDS011;11748;50.844;4.396;2023-06-14T13:49:59;3.90;;;2.55;;
23159;SDS011;11748;50.844;4.396;2023-06-14T13:52:25;4.00;;;2.67;;
23159;SDS011;11748;50.844;4.396;2023-06-14T13:54:51;10.00;;;2.55;;
23159;SDS011;11748;50.844;4.396;2023-06-14T13:57:17;6.15;;;2.78;;
23159;SDS011;11748;50.844;4.396;2023-06-14T13:59:43;3.80;;;2.67;;
23159;SDS011;11748;50.844;4.396;2023-06-14T14:02:11;9.88;;;2.88;;
23159;SDS011;11748;50.844;4.396;2023-06-14T14:04:38;5.45;;;1.95;;
23159;SDS011;11748;50.844;4.396;2023-06-14T14:07:04;2.85;;;2.10;;
23159;SDS011;11748;50.844;4.396;2023-06-14T14:09:31;5.63;;;1.90;;
23159;SDS011;11748;50.844;4.396;2023-06-14T14:11:58;6.13;;;2.35;;
23159;SDS011;11748;50.844;4.396;2023-06-14T14:14:24;4.70;;;1.92;;
23159;SDS011;11748;50.844;4.396;2023-06-14T14:16:53;3.97;;;1.70;;
23159;SDS011;11748;50.844;4.396;2023-06-14T14:19:19;2.88;;;1.80;;
23159;SDS011;11748;50.844;4.396;2023-06-14T14:21:46;4.93;;;1.80;;
23159;SDS011;11748;50.844;4.396;2023-06-14T14:24:13;3.72;;;1.60;;
23159;SDS011;11748;50.844;4.396;2023-06-14T14:26:40;3.83;;;1.55;;
23159;SDS011;11748;50.844;4.396;2023-06-14T14:29:05;6.13;;;1.58;;
23159;SDS011;11748;50.844;4.396;2023-06-14T14:31:31;4.88;;;1.52;;
23159;SDS011;11748;50.844;4.396;2023-06-14T14:33:57;4.35;;;1.50;;
23159;SDS011;11748;50.844;4.396;2023-06-14T14:36:23;3.65;;;1.50;;
23159;SDS011;11748;50.844;4.396;2023-06-14T14:38:48;3.80;;;1.30;;
23159;SDS011;11748;50.844;4.396;2023-06-14T14:41:16;5.00;;;1.25;;
23159;SDS011;11748;50.844;4.396;2023-06-14T14:43:42;4.93;;;1.45;;
23159;SDS011;11748;50.844;4.396;2023-06-14T14:46:08;5.63;;;1.27;;
23159;SDS011;11748;50.844;4.396;2023-06-14T14:48:34;7.90;;;1.40;;
23159;SDS011;11748;50.844;4.396;2023-06-14T14:51:00;2.85;;;1.42;;
23159;SDS011;11748;50.844;4.396;2023-06-14T14:53:27;6.03;;;1.45;;
23159;SDS011;11748;50.844;4.396;2023-06-14T14:55:52;2.42;;;1.30;;
23159;SDS011;11748;50.844;4.396;2023-06-14T14:58:18;1.70;;;1.40;;
23159;SDS011;11748;50.844;4.396;2023-06-14T15:00:45;3.50;;;1.30;;